sensor_id;sensor_type;location;lat;lon;timestamp;pressure;altitude;pressure_sealevel;temperature;humidity
72024;BME280;59889;50.700;5.440;2022-08-19T00:00:07;99857.07;;;29.62;28.48
72024;BME280;59889;50.700;5.440;2022-08-19T00:02:30;99859.11;;;29.75;28.31
72024;BME280;59889;50.700;5.440;2022-08-19T00:04:56;99862.45;;;30.03;28.27
72024;BME280;59889;50.700;5.440;2022-08-19T00:07:21;99865.44;;;30.05;28.27
72024;BME280;59889;50.700;5.440;2022-08-19T00:09:48;99861.83;;;29.78;28.28
72024;BME280;59889;50.700;5.440;2022-08-19T00:12:13;99858.30;;;29.76;28.30
72024;BME280;59889;50.700;5.440;2022-08-19T00:14:39;99859.26;;;30.23;28.31
72024;BME280;59889;50.700;5.440;2022-08-19T00:17:06;99857.82;;;30.03;28.24
72024;BME280;59889;50.700;5.440;2022-08-19T00:19:31;99855.73;;;29.97;28.32
72024;BME280;59889;50.700;5.440;2022-08-19T00:21:57;99855.49;;;30.24;28.26
72024;BME280;59889;50.700;5.440;2022-08-19T00:24:23;99856.49;;;30.30;28.26
72024;BME280;59889;50.700;5.440;2022-08-19T00:26:49;99859.24;;;30.11;28.41
72024;BME280;59889;50.700;5.440;2022-08-19T00:29:18;99864.24;;;29.78;28.29
72024;BME280;59889;50.700;5.440;2022-08-19T00:31:41;99862.50;;;30.00;28.27
72024;BME280;59889;50.700;5.440;2022-08-19T00:34:06;99858.88;;;29.74;28.34
72024;BME280;59889;50.700;5.440;2022-08-19T00:36:32;99856.75;;;29.68;28.32
72024;BME280;59889;50.700;5.440;2022-08-19T00:38:57;99856.93;;;29.90;28.34
72024;BME280;59889;50.700;5.440;2022-08-19T00:41:24;99854.43;;;29.64;28.37
72024;BME280;59889;50.700;5.440;2022-08-19T00:44:00;99850.21;;;29.96;28.29
72024;BME280;59889;50.700;5.440;2022-08-19T00:46:15;99848.70;;;30.25;28.25
72024;BME280;59889;50.700;5.440;2022-08-19T00:48:41;99851.21;;;29.95;28.27
72024;BME280;59889;50.700;5.440;2022-08-19T00:51:06;99843.61;;;29.96;28.25
72024;BME280;59889;50.700;5.440;2022-08-19T00:53:33;99841.51;;;29.93;28.30
72024;BME280;59889;50.700;5.440;2022-08-19T00:55:59;99838.61;;;29.95;28.28
72024;BME280;59889;50.700;5.440;2022-08-19T00:58:27;99840.12;;;29.71;28.31
72024;BME280;59889;50.700;5.440;2022-08-19T01:00:50;99842.29;;;29.72;28.23
72024;BME280;59889;50.700;5.440;2022-08-19T01:03:18;99844.72;;;29.63;28.33
72024;BME280;59889;50.700;5.440;2022-08-19T01:05:43;99841.96;;;29.98;28.19
72024;BME280;59889;50.700;5.440;2022-08-19T01:08:07;99838.95;;;29.90;28.28
72024;BME280;59889;50.700;5.440;2022-08-19T01:10:35;99838.79;;;30.14;28.28
72024;BME280;59889;50.700;5.440;2022-08-19T01:12:59;99838.43;;;30.18;28.25
72024;BME280;59889;50.700;5.440;2022-08-19T01:15:29;99840.45;;;29.66;28.36
72024;BME280;59889;50.700;5.440;2022-08-19T01:17:50;99840.41;;;29.69;28.27
72024;BME280;59889;50.700;5.440;2022-08-19T01:20:19;99844.52;;;30.21;28.21
72024;BME280;59889;50.700;5.440;2022-08-19T01:22:44;99844.39;;;29.61;28.31
72024;BME280;59889;50.700;5.440;2022-08-19T01:25:07;99847.79;;;29.93;28.28
72024;BME280;59889;50.700;5.440;2022-08-19T01:27:37;99850.01;;;30.11;28.33
72024;BME280;59889;50.700;5.440;2022-08-19T01:29:59;99853.27;;;29.88;28.27
72024;BME280;59889;50.700;5.440;2022-08-19T01:32:24;99854.84;;;29.87;28.27
72024;BME280;59889;50.700;5.440;2022-08-19T01:34:51;99856.94;;;29.81;28.38
72024;BME280;59889;50.700;5.440;2022-08-19T01:37:16;99859.89;;;29.97;28.20
72024;BME280;59889;50.700;5.440;2022-08-19T01:39:43;99860.08;;;29.89;28.25
72024;BME280;59889;50.700;5.440;2022-08-19T01:42:09;99859.16;;;29.89;28.23
72024;BME280;59889;50.700;5.440;2022-08-19T01:44:34;99862.55;;;29.60;28.27
72024;BME280;59889;50.700;5.440;2022-08-19T01:47:00;99866.89;;;29.73;28.21
72024;BME280;59889;50.700;5.440;2022-08-19T01:49:25;99867.32;;;29.69;28.23
72024;BME280;59889;50.700;5.440;2022-08-19T01:51:53;99867.20;;;30.12;28.25
72024;BME280;59889;50.700;5.440;2022-08-19T01:54:18;99868.87;;;29.88;28.25
72024;BME280;59889;50.700;5.440;2022-08-19T01:56:43;99872.44;;;30.05;28.29
72024;BME280;59889;50.700;5.440;2022-08-19T01:59:11;99875.71;;;30.07;28.30
72024;BME280;59889;50.700;5.440;2022-08-19T02:01:35;99877.80;;;30.09;28.26
72024;BME280;59889;50.700;5.440;2022-08-19T02:04:00;99879.82;;;29.86;28.29
72024;BME280;59889;50.700;5.440;2022-08-19T02:06:26;99880.31;;;29.60;28.27
72024;BME280;59889;50.700;5.440;2022-08-19T02:08:52;99881.20;;;29.87;28.21
72024;BME280;59889;50.700;5.440;2022-08-19T02:11:20;99883.65;;;29.88;28.21
72024;BME280;59889;50.700;5.440;2022-08-19T02:13:43;99886.06;;;29.87;28.28
72024;BME280;59889;50.700;5.440;2022-08-19T02:16:09;99886.60;;;30.12;28.21
72024;BME280;59889;50.700;5.440;2022-08-19T02:18:35;99887.84;;;30.12;28.18
72024;BME280;59889;50.700;5.440;2022-08-19T02:21:01;99891.47;;;29.87;28.18
72024;BME280;59889;50.700;5.440;2022-08-19T02:23:27;99894.16;;;29.85;28.20
72024;BME280;59889;50.700;5.440;2022-08-19T02:25:52;99895.18;;;30.07;28.27
72024;BME280;59889;50.700;5.440;2022-08-19T02:28:18;99895.53;;;29.87;28.20
72024;BME280;59889;50.700;5.440;2022-08-19T02:30:45;99889.75;;;29.84;28.24
72024;BME280;59889;50.700;5.440;2022-08-19T02:33:09;99885.71;;;30.07;28.24
72024;BME280;59889;50.700;5.440;2022-08-19T02:35:34;99886.63;;;29.80;28.23
72024;BME280;59889;50.700;5.440;2022-08-19T02:38:00;99886.83;;;30.08;28.23
72024;BME280;59889;50.700;5.440;2022-08-19T02:40:26;99886.17;;;30.10;28.18
72024;BME280;59889;50.700;5.440;2022-08-19T02:42:52;99887.57;;;29.96;28.29
72024;BME280;59889;50.700;5.440;2022-08-19T02:45:18;99886.76;;;29.82;28.21
72024;BME280;59889;50.700;5.440;2022-08-19T02:47:44;99884.05;;;29.82;28.27
72024;BME280;59889;50.700;5.440;2022-08-19T02:50:10;99881.91;;;30.07;28.17
72024;BME280;59889;50.700;5.440;2022-08-19T02:52:35;99882.08;;;29.58;28.27
72024;BME280;59889;50.700;5.440;2022-08-19T02:55:01;99884.97;;;30.06;28.22
72024;BME280;59889;50.700;5.440;2022-08-19T02:57:27;99887.16;;;29.58;28.19
72024;BME280;59889;50.700;5.440;2022-08-19T02:59:53;99888.28;;;30.02;28.22
72024;BME280;59889;50.700;5.440;2022-08-19T03:02:19;99884.61;;;30.23;28.28
72024;BME280;59889;50.700;5.440;2022-08-19T03:04:44;99888.22;;;30.08;28.23
72024;BME280;59889;50.700;5.440;2022-08-19T03:07:13;99884.94;;;29.88;28.38
72024;BME280;59889;50.700;5.440;2022-08-19T03:09:37;99882.53;;;29.55;28.20
72024;BME280;59889;50.700;5.440;2022-08-19T03:12:03;99880.23;;;29.82;28.17
72024;BME280;59889;50.700;5.440;2022-08-19T03:14:30;99883.32;;;30.04;28.16
72024;BME280;59889;50.700;5.440;2022-08-19T03:16:53;99880.68;;;30.11;28.07
72024;BME280;59889;50.700;5.440;2022-08-19T03:19:20;99880.01;;;30.12;28.08
72024;BME280;59889;50.700;5.440;2022-08-19T03:21:45;99879.02;;;29.82;28.11
72024;BME280;59889;50.700;5.440;2022-08-19T03:24:12;99883.80;;;30.33;28.11
72024;BME280;59889;50.700;5.440;2022-08-19T03:26:39;99884.96;;;29.54;28.23
72024;BME280;59889;50.700;5.440;2022-08-19T03:29:03;99888.99;;;30.10;28.17
72024;BME280;59889;50.700;5.440;2022-08-19T03:31:28;99888.85;;;29.88;28.05
72024;BME280;59889;50.700;5.440;2022-08-19T03:33:54;99892.00;;;30.04;28.18
72024;BME280;59889;50.700;5.440;2022-08-19T03:36:23;99895.03;;;30.00;28.18
72024;BME280;59889;50.700;5.440;2022-08-19T03:38:47;99896.67;;;30.08;28.11
72024;BME280;59889;50.700;5.440;2022-08-19T03:41:13;99900.27;;;30.09;28.14
72024;BME280;59889;50.700;5.440;2022-08-19T03:43:38;99903.59;;;30.05;28.23
72024;BME280;59889;50.700;5.440;2022-08-19T03:46:05;99905.80;;;30.01;28.14
72024;BME280;59889;50.700;5.440;2022-08-19T03:48:28;99905.01;;;29.85;28.12
72024;BME280;59889;50.700;5.440;2022-08-19T03:50:54;99903.95;;;30.00;28.16
72024;BME280;59889;50.700;5.440;2022-08-19T03:53:20;99902.88;;;29.74;28.15
72024;BME280;59889;50.700;5.440;2022-08-19T03:55:46;99901.88;;;30.02;28.16
72024;BME280;59889;50.700;5.440;2022-08-19T03:58:12;99899.24;;;29.78;28.18
72024;BME280;59889;50.700;5.440;2022-08-19T04:00:41;99898.28;;;29.93;28.19
72024;BME280;59889;50.700;5.440;2022-08-19T04:03:03;99897.29;;;30.02;28.19
72024;BME280;59889;50.700;5.440;2022-08-19T04:05:29;99898.76;;;29.85;28.13
72024;BME280;59889;50.700;5.440;2022-08-19T04:07:55;99898.69;;;30.11;28.60
72024;BME280;59889;50.700;5.440;2022-08-19T04:10:21;99898.38;;;30.14;28.83
72024;BME280;59889;50.700;5.440;2022-08-19T04:12:47;99898.13;;;29.65;28.87
72024;BME280;59889;50.700;5.440;2022-08-19T04:15:12;99891.81;;;30.16;28.78
72024;BME280;59889;50.700;5.440;2022-08-19T04:17:37;99889.91;;;30.14;28.72
72024;BME280;59889;50.700;5.440;2022-08-19T04:20:02;99888.00;;;30.09;28.72
72024;BME280;59889;50.700;5.440;2022-08-19T04:22:27;99885.63;;;30.10;28.65
72024;BME280;59889;50.700;5.440;2022-08-19T04:24:52;99882.01;;;29.83;28.61
72024;BME280;59889;50.700;5.440;2022-08-19T04:27:18;99878.16;;;29.53;28.62
72024;BME280;59889;50.700;5.440;2022-08-19T04:29:43;99872.47;;;30.07;28.53
72024;BME280;59889;50.700;5.440;2022-08-19T04:32:09;99872.75;;;30.04;28.65
72024;BME280;59889;50.700;5.440;2022-08-19T04:34:34;99876.13;;;30.03;28.62
72024;BME280;59889;50.700;5.440;2022-08-19T04:36:59;99882.92;;;29.72;28.67
72024;BME280;59889;50.700;5.440;2022-08-19T04:39:26;99888.62;;;29.78;28.63
72024;BME280;59889;50.700;5.440;2022-08-19T04:41:50;99893.97;;;29.96;28.67
72024;BME280;59889;50.700;5.440;2022-08-19T04:44:14;99897.44;;;29.49;28.66
72024;BME280;59889;50.700;5.440;2022-08-19T04:46:40;99899.02;;;30.03;28.64
72024;BME280;59889;50.700;5.440;2022-08-19T04:49:06;99904.41;;;29.97;28.68
72024;BME280;59889;50.700;5.440;2022-08-19T04:51:32;99904.89;;;29.69;28.58
72024;BME280;59889;50.700;5.440;2022-08-19T04:53:56;99904.76;;;29.51;28.49
72024;BME280;59889;50.700;5.440;2022-08-19T04:56:21;99905.03;;;29.41;28.57
72024;BME280;59889;50.700;5.440;2022-08-19T04:58:47;99905.67;;;29.89;28.54
72024;BME280;59889;50.700;5.440;2022-08-19T05:01:13;99910.97;;;29.64;28.54
72024;BME280;59889;50.700;5.440;2022-08-19T05:03:37;99913.98;;;29.68;28.51
72024;BME280;59889;50.700;5.440;2022-08-19T05:06:05;99919.17;;;29.60;28.56
72024;BME280;59889;50.700;5.440;2022-08-19T05:08:28;99920.58;;;29.43;28.46
72024;BME280;59889;50.700;5.440;2022-08-19T05:10:54;99919.27;;;29.86;28.47
72024;BME280;59889;50.700;5.440;2022-08-19T05:13:19;99919.32;;;29.36;28.48
72024;BME280;59889;50.700;5.440;2022-08-19T05:15:53;99915.23;;;29.82;28.50
72024;BME280;59889;50.700;5.440;2022-08-19T05:18:10;99916.93;;;29.60;28.44
72024;BME280;59889;50.700;5.440;2022-08-19T05:20:37;99914.16;;;29.86;28.41
72024;BME280;59889;50.700;5.440;2022-08-19T05:23:01;99919.59;;;29.59;28.43
72024;BME280;59889;50.700;5.440;2022-08-19T05:25:26;99924.06;;;29.85;28.39
72024;BME280;59889;50.700;5.440;2022-08-19T05:27:51;99924.98;;;29.86;28.35
72024;BME280;59889;50.700;5.440;2022-08-19T05:30:17;99928.16;;;29.60;28.37
72024;BME280;59889;50.700;5.440;2022-08-19T05:32:42;99930.57;;;29.83;28.36
72024;BME280;59889;50.700;5.440;2022-08-19T05:35:08;99932.50;;;29.84;28.34
72024;BME280;59889;50.700;5.440;2022-08-19T05:37:33;99934.86;;;29.62;28.34
72024;BME280;59889;50.700;5.440;2022-08-19T05:39:58;99938.22;;;29.84;28.38
72024;BME280;59889;50.700;5.440;2022-08-19T05:42:24;99938.01;;;29.82;28.41
72024;BME280;59889;50.700;5.440;2022-08-19T05:44:50;99941.70;;;29.83;28.40
72024;BME280;59889;50.700;5.440;2022-08-19T05:47:15;99942.26;;;29.81;28.41
72024;BME280;59889;50.700;5.440;2022-08-19T05:49:42;99942.47;;;29.75;28.46
72024;BME280;59889;50.700;5.440;2022-08-19T05:52:12;99944.04;;;29.78;28.40
72024;BME280;59889;50.700;5.440;2022-08-19T05:54:32;99944.07;;;29.71;28.48
72024;BME280;59889;50.700;5.440;2022-08-19T05:56:57;99945.44;;;29.71;28.47
72024;BME280;59889;50.700;5.440;2022-08-19T05:59:23;99947.86;;;29.69;28.49
72024;BME280;59889;50.700;5.440;2022-08-19T06:01:52;99948.76;;;29.75;28.43
72024;BME280;59889;50.700;5.440;2022-08-19T06:04:13;99952.40;;;29.26;28.45
72024;BME280;59889;50.700;5.440;2022-08-19T06:06:40;99952.46;;;29.71;28.47
72024;BME280;59889;50.700;5.440;2022-08-19T06:09:06;99951.80;;;29.72;28.43
72024;BME280;59889;50.700;5.440;2022-08-19T06:11:34;99951.00;;;29.72;28.42
72024;BME280;59889;50.700;5.440;2022-08-19T06:13:56;99952.38;;;29.76;28.38
72024;BME280;59889;50.700;5.440;2022-08-19T06:16:22;99955.88;;;29.69;28.46
72024;BME280;59889;50.700;5.440;2022-08-19T06:18:47;99962.76;;;29.76;28.42
72024;BME280;59889;50.700;5.440;2022-08-19T06:21:12;99965.16;;;29.62;28.52
72024;BME280;59889;50.700;5.440;2022-08-19T06:23:37;99968.71;;;29.70;28.40
72024;BME280;59889;50.700;5.440;2022-08-19T06:26:02;99970.48;;;29.67;28.43
72024;BME280;59889;50.700;5.440;2022-08-19T06:28:27;99968.30;;;29.56;28.55
72024;BME280;59889;50.700;5.440;2022-08-19T06:30:53;99967.50;;;29.61;28.48
72024;BME280;59889;50.700;5.440;2022-08-19T06:33:18;99965.40;;;29.53;28.57
72024;BME280;59889;50.700;5.440;2022-08-19T06:35:44;99965.13;;;29.46;28.62
72024;BME280;59889;50.700;5.440;2022-08-19T06:38:09;99963.58;;;29.36;28.71
72024;BME280;59889;50.700;5.440;2022-08-19T06:40:35;99961.47;;;29.41;28.65
72024;BME280;59889;50.700;5.440;2022-08-19T06:43:01;99964.11;;;29.41;28.63
72024;BME280;59889;50.700;5.440;2022-08-19T06:45:26;99965.91;;;29.18;28.60
72024;BME280;59889;50.700;5.440;2022-08-19T06:47:52;99969.50;;;29.43;28.79
72024;BME280;59889;50.700;5.440;2022-08-19T06:50:17;99972.66;;;29.40;28.62
72024;BME280;59889;50.700;5.440;2022-08-19T06:52:42;99975.63;;;29.42;28.59
72024;BME280;59889;50.700;5.440;2022-08-19T06:55:08;99978.52;;;29.43;28.58
72024;BME280;59889;50.700;5.440;2022-08-19T06:57:33;99980.24;;;29.48;28.53
72024;BME280;59889;50.700;5.440;2022-08-19T06:59:58;99980.52;;;29.42;28.61
72024;BME280;59889;50.700;5.440;2022-08-19T07:02:24;99988.04;;;29.35;28.69
72024;BME280;59889;50.700;5.440;2022-08-19T07:04:50;99991.07;;;29.57;28.72
72024;BME280;59889;50.700;5.440;2022-08-19T07:07:15;99994.33;;;29.38;28.67
72024;BME280;59889;50.700;5.440;2022-08-19T07:09:43;99993.73;;;29.08;28.73
72024;BME280;59889;50.700;5.440;2022-08-19T07:12:09;99993.07;;;29.22;28.84
72024;BME280;59889;50.700;5.440;2022-08-19T07:14:33;99994.85;;;29.26;28.80
72024;BME280;59889;50.700;5.440;2022-08-19T07:16:58;99994.39;;;29.28;28.78
72024;BME280;59889;50.700;5.440;2022-08-19T07:19:25;99994.31;;;29.54;28.75
72024;BME280;59889;50.700;5.440;2022-08-19T07:21:50;99996.48;;;29.62;28.66
72024;BME280;59889;50.700;5.440;2022-08-19T07:24:15;99997.65;;;29.33;28.69
72024;BME280;59889;50.700;5.440;2022-08-19T07:26:42;99997.04;;;29.35;28.67
72024;BME280;59889;50.700;5.440;2022-08-19T07:29:05;99994.97;;;29.46;28.79
72024;BME280;59889;50.700;5.440;2022-08-19T07:31:30;99997.89;;;29.44;28.57
72024;BME280;59889;50.700;5.440;2022-08-19T07:33:56;99997.12;;;29.36;28.65
72024;BME280;59889;50.700;5.440;2022-08-19T07:36:27;99997.45;;;29.41;28.60
72024;BME280;59889;50.700;5.440;2022-08-19T07:38:49;100000.87;;;29.39;28.63
72024;BME280;59889;50.700;5.440;2022-08-19T07:41:14;99997.32;;;29.27;28.74
72024;BME280;59889;50.700;5.440;2022-08-19T07:43:37;100002.67;;;29.42;28.61
72024;BME280;59889;50.700;5.440;2022-08-19T07:46:03;100002.23;;;29.33;28.71
72024;BME280;59889;50.700;5.440;2022-08-19T07:48:28;100002.10;;;29.41;28.66
72024;BME280;59889;50.700;5.440;2022-08-19T07:50:54;100000.13;;;29.10;28.73
72024;BME280;59889;50.700;5.440;2022-08-19T07:53:18;100003.64;;;29.48;28.60
72024;BME280;59889;50.700;5.440;2022-08-19T07:55:44;100007.15;;;29.44;28.67
72024;BME280;59889;50.700;5.440;2022-08-19T07:58:10;100010.62;;;29.65;28.82
72024;BME280;59889;50.700;5.440;2022-08-19T08:00:35;100015.40;;;29.50;28.78
72024;BME280;59889;50.700;5.440;2022-08-19T08:03:01;100012.67;;;29.25;28.89
72024;BME280;59889;50.700;5.440;2022-08-19T08:05:26;100006.52;;;29.48;28.90
72024;BME280;59889;50.700;5.440;2022-08-19T08:07:52;100006.50;;;29.69;28.93
72024;BME280;59889;50.700;5.440;2022-08-19T08:10:17;100006.66;;;29.05;29.11
72024;BME280;59889;50.700;5.440;2022-08-19T08:12:42;100011.25;;;29.40;29.03
72024;BME280;59889;50.700;5.440;2022-08-19T08:15:12;100015.63;;;29.38;29.03
72024;BME280;59889;50.700;5.440;2022-08-19T08:17:33;100017.08;;;29.57;29.09
72024;BME280;59889;50.700;5.440;2022-08-19T08:19:59;100018.86;;;29.24;29.22
72024;BME280;59889;50.700;5.440;2022-08-19T08:22:25;100019.32;;;29.38;29.06
72024;BME280;59889;50.700;5.440;2022-08-19T08:24:51;100019.40;;;29.40;29.08
72024;BME280;59889;50.700;5.440;2022-08-19T08:27:16;100016.32;;;29.35;29.16
72024;BME280;59889;50.700;5.440;2022-08-19T08:29:42;100014.66;;;29.45;29.10
72024;BME280;59889;50.700;5.440;2022-08-19T08:32:07;100013.53;;;29.48;29.11
72024;BME280;59889;50.700;5.440;2022-08-19T08:34:33;100014.44;;;29.46;29.13
72024;BME280;59889;50.700;5.440;2022-08-19T08:36:58;100017.38;;;29.64;28.90
72024;BME280;59889;50.700;5.440;2022-08-19T08:39:24;100018.42;;;29.63;28.88
72024;BME280;59889;50.700;5.440;2022-08-19T08:41:55;100022.78;;;29.90;28.88
72024;BME280;59889;50.700;5.440;2022-08-19T08:44:17;100024.88;;;29.18;28.93
72024;BME280;59889;50.700;5.440;2022-08-19T08:46:43;100029.79;;;29.62;29.01
72024;BME280;59889;50.700;5.440;2022-08-19T08:49:15;100032.03;;;29.64;28.99
72024;BME280;59889;50.700;5.440;2022-08-19T08:51:36;100036.22;;;29.40;28.97
72024;BME280;59889;50.700;5.440;2022-08-19T08:53:57;100039.58;;;29.61;28.96
72024;BME280;59889;50.700;5.440;2022-08-19T08:56:22;100041.10;;;29.49;29.07
72024;BME280;59889;50.700;5.440;2022-08-19T08:58:54;100043.90;;;29.51;29.05
72024;BME280;59889;50.700;5.440;2022-08-19T09:01:13;100045.39;;;29.48;29.06
72024;BME280;59889;50.700;5.440;2022-08-19T09:03:42;100045.56;;;29.69;29.09
72024;BME280;59889;50.700;5.440;2022-08-19T09:06:07;100040.19;;;29.43;29.05
72024;BME280;59889;50.700;5.440;2022-08-19T09:08:39;100038.95;;;29.49;28.97
72024;BME280;59889;50.700;5.440;2022-08-19T09:10:56;100034.46;;;29.63;29.06
72024;BME280;59889;50.700;5.440;2022-08-19T09:13:27;100029.96;;;29.37;29.12
72024;BME280;59889;50.700;5.440;2022-08-19T09:15:49;100029.62;;;29.54;28.93
72024;BME280;59889;50.700;5.440;2022-08-19T09:18:14;100028.00;;;29.65;28.84
72024;BME280;59889;50.700;5.440;2022-08-19T09:20:38;100027.01;;;29.87;28.89
72024;BME280;59889;50.700;5.440;2022-08-19T09:23:04;100029.15;;;29.52;29.00
72024;BME280;59889;50.700;5.440;2022-08-19T09:25:29;100030.46;;;29.39;28.92
72024;BME280;59889;50.700;5.440;2022-08-19T09:27:55;100031.06;;;29.41;28.91
72024;BME280;59889;50.700;5.440;2022-08-19T09:30:23;100029.21;;;29.58;28.95
72024;BME280;59889;50.700;5.440;2022-08-19T09:32:46;100026.52;;;29.60;28.92
72024;BME280;59889;50.700;5.440;2022-08-19T09:35:12;100032.08;;;29.49;29.02
72024;BME280;59889;50.700;5.440;2022-08-19T09:37:37;100037.78;;;29.63;28.84
72024;BME280;59889;50.700;5.440;2022-08-19T09:40:04;100036.44;;;29.70;28.74
72024;BME280;59889;50.700;5.440;2022-08-19T09:42:29;100037.43;;;29.70;28.75
72024;BME280;59889;50.700;5.440;2022-08-19T09:44:54;100036.46;;;29.48;28.78
72024;BME280;59889;50.700;5.440;2022-08-19T09:47:20;100034.67;;;29.61;28.91
72024;BME280;59889;50.700;5.440;2022-08-19T09:49:45;100035.45;;;29.58;28.91
72024;BME280;59889;50.700;5.440;2022-08-19T09:52:11;100033.32;;;29.60;28.90
72024;BME280;59889;50.700;5.440;2022-08-19T09:54:36;100035.64;;;29.51;28.97
72024;BME280;59889;50.700;5.440;2022-08-19T09:57:01;100033.40;;;29.35;28.90
72024;BME280;59889;50.700;5.440;2022-08-19T09:59:28;100035.98;;;29.82;28.91
72024;BME280;59889;50.700;5.440;2022-08-19T10:01:53;100033.34;;;29.60;28.90
72024;BME280;59889;50.700;5.440;2022-08-19T10:04:19;100032.32;;;29.25;29.03
72024;BME280;59889;50.700;5.440;2022-08-19T10:06:44;100028.48;;;29.54;28.97
72024;BME280;59889;50.700;5.440;2022-08-19T10:09:10;100031.47;;;29.46;29.00
72024;BME280;59889;50.700;5.440;2022-08-19T10:11:36;100031.41;;;29.51;28.97
72024;BME280;59889;50.700;5.440;2022-08-19T10:14:01;100027.11;;;29.54;28.96
72024;BME280;59889;50.700;5.440;2022-08-19T10:16:26;100025.59;;;29.47;29.04
72024;BME280;59889;50.700;5.440;2022-08-19T10:18:52;100024.97;;;29.40;29.14
72024;BME280;59889;50.700;5.440;2022-08-19T10:21:18;100020.55;;;29.52;28.96
72024;BME280;59889;50.700;5.440;2022-08-19T10:23:43;100013.91;;;29.85;28.85
72024;BME280;59889;50.700;5.440;2022-08-19T10:26:07;100013.87;;;29.52;28.91
72024;BME280;59889;50.700;5.440;2022-08-19T10:28:34;100011.07;;;29.53;28.73
72024;BME280;59889;50.700;5.440;2022-08-19T10:31:03;100014.96;;;29.53;28.68
72024;BME280;59889;50.700;5.440;2022-08-19T10:33:25;100021.11;;;29.51;28.66
72024;BME280;59889;50.700;5.440;2022-08-19T10:35:58;100016.26;;;29.66;28.60
72024;BME280;59889;50.700;5.440;2022-08-19T10:38:16;100014.22;;;29.48;28.46
72024;BME280;59889;50.700;5.440;2022-08-19T10:40:42;100009.61;;;29.42;28.42
72024;BME280;59889;50.700;5.440;2022-08-19T10:43:08;100008.41;;;29.47;28.35
72024;BME280;59889;50.700;5.440;2022-08-19T10:45:34;100008.36;;;29.52;28.27
72024;BME280;59889;50.700;5.440;2022-08-19T10:47:59;100005.25;;;29.45;28.22
72024;BME280;59889;50.700;5.440;2022-08-19T10:50:25;100003.29;;;29.40;28.22
72024;BME280;59889;50.700;5.440;2022-08-19T10:52:51;100003.25;;;29.27;28.38
72024;BME280;59889;50.700;5.440;2022-08-19T10:55:20;100003.19;;;29.41;28.28
72024;BME280;59889;50.700;5.440;2022-08-19T10:57:43;100004.30;;;29.45;28.19
72024;BME280;59889;50.700;5.440;2022-08-19T11:00:10;100002.30;;;29.36;28.25
72024;BME280;59889;50.700;5.440;2022-08-19T11:02:34;100004.89;;;29.38;28.21
72024;BME280;59889;50.700;5.440;2022-08-19T11:05:00;100002.03;;;29.35;28.28
72024;BME280;59889;50.700;5.440;2022-08-19T11:07:26;99997.56;;;29.41;28.32
72024;BME280;59889;50.700;5.440;2022-08-19T11:09:52;99994.77;;;29.35;28.42
72024;BME280;59889;50.700;5.440;2022-08-19T11:12:17;99992.18;;;29.38;28.37
72024;BME280;59889;50.700;5.440;2022-08-19T11:14:43;99993.13;;;29.15;28.32
72024;BME280;59889;50.700;5.440;2022-08-19T11:17:09;99994.71;;;29.33;28.50
72024;BME280;59889;50.700;5.440;2022-08-19T11:19:35;99998.28;;;29.13;28.45
72024;BME280;59889;50.700;5.440;2022-08-19T11:22:01;99998.78;;;29.37;28.45
72024;BME280;59889;50.700;5.440;2022-08-19T11:24:26;99988.28;;;29.53;28.51
72024;BME280;59889;50.700;5.440;2022-08-19T11:26:54;99986.86;;;29.40;28.42
72024;BME280;59889;50.700;5.440;2022-08-19T11:29:20;99989.54;;;29.37;28.41
72024;BME280;59889;50.700;5.440;2022-08-19T11:31:47;99992.97;;;29.46;28.33
72024;BME280;59889;50.700;5.440;2022-08-19T11:34:11;99990.52;;;29.41;28.35
72024;BME280;59889;50.700;5.440;2022-08-19T11:36:37;99987.27;;;29.53;28.22
72024;BME280;59889;50.700;5.440;2022-08-19T11:39:02;99982.16;;;29.50;28.23
72024;BME280;59889;50.700;5.440;2022-08-19T11:41:27;99986.93;;;29.35;28.40
72024;BME280;59889;50.700;5.440;2022-08-19T11:43:53;99983.57;;;29.37;28.42
72024;BME280;59889;50.700;5.440;2022-08-19T11:46:19;99980.08;;;29.53;28.30
72024;BME280;59889;50.700;5.440;2022-08-19T11:48:44;99980.49;;;29.54;28.28
72024;BME280;59889;50.700;5.440;2022-08-19T11:51:18;99983.77;;;29.56;28.31
72024;BME280;59889;50.700;5.440;2022-08-19T11:53:36;99981.17;;;29.80;28.37
72024;BME280;59889;50.700;5.440;2022-08-19T11:56:03;99979.94;;;29.58;28.36
72024;BME280;59889;50.700;5.440;2022-08-19T11:58:28;99981.26;;;29.55;28.42
72024;BME280;59889;50.700;5.440;2022-08-19T12:00:54;99980.10;;;29.63;28.37
72024;BME280;59889;50.700;5.440;2022-08-19T12:03:20;99978.51;;;29.62;28.48
72024;BME280;59889;50.700;5.440;2022-08-19T12:05:45;99977.65;;;29.34;28.65
72024;BME280;59889;50.700;5.440;2022-08-19T12:08:12;99979.92;;;29.62;28.89
72024;BME280;59889;50.700;5.440;2022-08-19T12:10:37;99981.28;;;29.39;29.11
72024;BME280;59889;50.700;5.440;2022-08-19T12:13:03;99981.56;;;29.57;29.29
72024;BME280;59889;50.700;5.440;2022-08-19T12:15:28;99983.09;;;29.65;29.35
72024;BME280;59889;50.700;5.440;2022-08-19T12:17:54;99984.02;;;29.52;29.57
72024;BME280;59889;50.700;5.440;2022-08-19T12:20:20;99982.34;;;29.54;29.70
72024;BME280;59889;50.700;5.440;2022-08-19T12:22:45;99982.61;;;29.51;29.76
72024;BME280;59889;50.700;5.440;2022-08-19T12:25:12;99983.82;;;29.51;29.78
72024;BME280;59889;50.700;5.440;2022-08-19T12:27:38;99982.54;;;29.75;29.93
72024;BME280;59889;50.700;5.440;2022-08-19T12:30:04;99978.45;;;29.52;29.87
72024;BME280;59889;50.700;5.440;2022-08-19T12:32:29;99972.94;;;29.48;29.99
72024;BME280;59889;50.700;5.440;2022-08-19T12:34:55;99974.10;;;29.48;30.00
72024;BME280;59889;50.700;5.440;2022-08-19T12:37:20;99971.39;;;29.67;30.19
72024;BME280;59889;50.700;5.440;2022-08-19T12:39:47;99971.15;;;29.38;30.29
72024;BME280;59889;50.700;5.440;2022-08-19T12:42:14;99971.78;;;29.37;30.36
72024;BME280;59889;50.700;5.440;2022-08-19T12:44:39;99970.99;;;29.38;30.40
72024;BME280;59889;50.700;5.440;2022-08-19T12:47:04;99975.50;;;29.59;30.56